sensor_id;sensor_type;location;lat;lon;timestamp;temperature;humidity
76878;DHT22;65843;50.692;12.844;2023-02-04T00:00:29;18.50;59.40
76878;DHT22;65843;50.692;12.844;2023-02-04T00:01:30;18.50;59.40
76878;DHT22;65843;50.692;12.844;2023-02-04T00:02:34;18.50;59.70
76878;DHT22;65843;50.692;12.844;2023-02-04T00:03:38;18.50;59.50
76878;DHT22;65843;50.692;12.844;2023-02-04T00:04:44;18.50;59.30
76878;DHT22;65843;50.692;12.844;2023-02-04T00:05:45;18.50;59.00
76878;DHT22;65843;50.692;12.844;2023-02-04T00:06:46;18.50;59.20
76878;DHT22;65843;50.692;12.844;2023-02-04T00:07:49;18.60;59.20
76878;DHT22;65843;50.692;12.844;2023-02-04T00:08:50;18.60;59.20
76878;DHT22;65843;50.692;12.844;2023-02-04T00:09:51;18.60;59.20
76878;DHT22;65843;50.692;12.844;2023-02-04T00:10:55;18.60;59.20
76878;DHT22;65843;50.692;12.844;2023-02-04T00:11:56;18.60;59.10
76878;DHT22;65843;50.692;12.844;2023-02-04T00:13:06;18.60;59.20
76878;DHT22;65843;50.692;12.844;2023-02-04T00:14:07;18.60;59.00
76878;DHT22;65843;50.692;12.844;2023-02-04T00:15:08;18.60;59.00
76878;DHT22;65843;50.692;12.844;2023-02-04T00:16:15;18.60;59.20
76878;DHT22;65843;50.692;12.844;2023-02-04T00:17:26;18.60;59.00
76878;DHT22;65843;50.692;12.844;2023-02-04T00:18:29;18.60;59.00
76878;DHT22;65843;50.692;12.844;2023-02-04T00:19:36;18.60;59.10
76878;DHT22;65843;50.692;12.844;2023-02-04T00:20:37;18.60;58.90
76878;DHT22;65843;50.692;12.844;2023-02-04T00:21:38;18.60;59.50
76878;DHT22;65843;50.692;12.844;2023-02-04T00:22:42;18.60;59.60
76878;DHT22;65843;50.692;12.844;2023-02-04T00:23:43;18.60;59.00
76878;DHT22;65843;50.692;12.844;2023-02-04T00:24:43;18.60;58.90
76878;DHT22;65843;50.692;12.844;2023-02-04T00:25:52;18.60;59.00
76878;DHT22;65843;50.692;12.844;2023-02-04T00:26:53;18.60;59.40
76878;DHT22;65843;50.692;12.844;2023-02-04T00:27:53;18.60;59.00
76878;DHT22;65843;50.692;12.844;2023-02-04T00:28:54;18.60;59.00
76878;DHT22;65843;50.692;12.844;2023-02-04T00:29:58;18.60;59.10
76878;DHT22;65843;50.692;12.844;2023-02-04T00:30:59;18.60;59.00
76878;DHT22;65843;50.692;12.844;2023-02-04T00:32:03;18.60;59.20
76878;DHT22;65843;50.692;12.844;2023-02-04T00:33:04;18.70;59.10
76878;DHT22;65843;50.692;12.844;2023-02-04T00:34:28;18.70;59.10
76878;DHT22;65843;50.692;12.844;2023-02-04T00:35:28;18.60;59.20
76878;DHT22;65843;50.692;12.844;2023-02-04T00:36:29;18.70;59.10
76878;DHT22;65843;50.692;12.844;2023-02-04T00:37:30;18.60;59.20
76878;DHT22;65843;50.692;12.844;2023-02-04T00:38:32;18.60;59.30
76878;DHT22;65843;50.692;12.844;2023-02-04T00:39:32;18.60;59.40
76878;DHT22;65843;50.692;12.844;2023-02-04T00:40:33;18.60;59.50
76878;DHT22;65843;50.692;12.844;2023-02-04T00:41:37;18.70;59.60
76878;DHT22;65843;50.692;12.844;2023-02-04T00:42:38;18.70;59.80
76878;DHT22;65843;50.692;12.844;2023-02-04T00:43:38;18.60;59.70
76878;DHT22;65843;50.692;12.844;2023-02-04T00:44:39;18.70;59.70
76878;DHT22;65843;50.692;12.844;2023-02-04T00:45:40;18.70;59.60
76878;DHT22;65843;50.692;12.844;2023-02-04T00:46:41;18.70;60.00
76878;DHT22;65843;50.692;12.844;2023-02-04T00:47:45;18.70;60.30
76878;DHT22;65843;50.692;12.844;2023-02-04T00:48:46;18.70;60.00
76878;DHT22;65843;50.692;12.844;2023-02-04T00:49:46;18.70;60.20
76878;DHT22;65843;50.692;12.844;2023-02-04T00:50:55;18.70;60.30
76878;DHT22;65843;50.692;12.844;2023-02-04T00:51:59;18.70;60.00
76878;DHT22;65843;50.692;12.844;2023-02-04T00:53:00;18.70;60.50
76878;DHT22;65843;50.692;12.844;2023-02-04T00:54:01;18.70;60.10
76878;DHT22;65843;50.692;12.844;2023-02-04T00:55:08;18.70;60.00
76878;DHT22;65843;50.692;12.844;2023-02-04T00:56:10;18.70;60.30
76878;DHT22;65843;50.692;12.844;2023-02-04T00:57:13;18.70;60.20
76878;DHT22;65843;50.692;12.844;2023-02-04T00:58:14;18.70;60.50
76878;DHT22;65843;50.692;12.844;2023-02-04T00:59:15;18.80;60.20
76878;DHT22;65843;50.692;12.844;2023-02-04T01:00:19;18.70;60.30
76878;DHT22;65843;50.692;12.844;2023-02-04T01:01:20;18.70;59.80
76878;DHT22;65843;50.692;12.844;2023-02-04T01:02:21;18.70;60.20
76878;DHT22;65843;50.692;12.844;2023-02-04T01:03:22;18.80;60.30
76878;DHT22;65843;50.692;12.844;2023-02-04T01:04:25;18.80;60.50
76878;DHT22;65843;50.692;12.844;2023-02-04T01:05:32;18.70;60.40
76878;DHT22;65843;50.692;12.844;2023-02-04T01:06:35;18.70;60.60
76878;DHT22;65843;50.692;12.844;2023-02-04T01:07:36;18.80;60.40
76878;DHT22;65843;50.692;12.844;2023-02-04T01:08:48;18.80;60.50
76878;DHT22;65843;50.692;12.844;2023-02-04T01:09:52;18.80;60.40
76878;DHT22;65843;50.692;12.844;2023-02-04T01:10:58;18.80;60.30
76878;DHT22;65843;50.692;12.844;2023-02-04T01:12:01;18.80;60.50
76878;DHT22;65843;50.692;12.844;2023-02-04T01:13:11;18.80;60.70
76878;DHT22;65843;50.692;12.844;2023-02-04T01:14:15;18.80;60.50
76878;DHT22;65843;50.692;12.844;2023-02-04T01:15:43;18.80;60.70
76878;DHT22;65843;50.692;12.844;2023-02-04T01:16:48;18.80;60.70
76878;DHT22;65843;50.692;12.844;2023-02-04T01:17:51;18.80;60.60
76878;DHT22;65843;50.692;12.844;2023-02-04T01:18:52;18.80;60.50
76878;DHT22;65843;50.692;12.844;2023-02-04T01:19:56;18.80;60.80
76878;DHT22;65843;50.692;12.844;2023-02-04T01:21:14;18.80;60.70
76878;DHT22;65843;50.692;12.844;2023-02-04T01:22:15;18.80;60.60
76878;DHT22;65843;50.692;12.844;2023-02-04T01:23:24;18.80;60.60
76878;DHT22;65843;50.692;12.844;2023-02-04T01:24:25;18.90;60.50
76878;DHT22;65843;50.692;12.844;2023-02-04T01:25:26;18.90;60.70
76878;DHT22;65843;50.692;12.844;2023-02-04T01:26:29;18.90;60.70
76878;DHT22;65843;50.692;12.844;2023-02-04T01:27:33;18.90;60.70
76878;DHT22;65843;50.692;12.844;2023-02-04T01:28:34;18.90;60.70
76878;DHT22;65843;50.692;12.844;2023-02-04T01:29:35;18.90;60.70
76878;DHT22;65843;50.692;12.844;2023-02-04T01:30:36;18.90;60.70
76878;DHT22;65843;50.692;12.844;2023-02-04T01:31:46;18.90;60.50
76878;DHT22;65843;50.692;12.844;2023-02-04T01:32:52;18.90;60.30
76878;DHT22;65843;50.692;12.844;2023-02-04T01:33:59;18.90;60.70
76878;DHT22;65843;50.692;12.844;2023-02-04T01:35:03;18.90;60.60
76878;DHT22;65843;50.692;12.844;2023-02-04T01:36:24;18.90;60.70
76878;DHT22;65843;50.692;12.844;2023-02-04T01:37:30;18.90;60.70
76878;DHT22;65843;50.692;12.844;2023-02-04T01:38:31;19.00;60.70
76878;DHT22;65843;50.692;12.844;2023-02-04T01:39:32;19.00;60.70
76878;DHT22;65843;50.692;12.844;2023-02-04T01:40:33;19.00;60.40
76878;DHT22;65843;50.692;12.844;2023-02-04T01:41:34;19.00;60.70
76878;DHT22;65843;50.692;12.844;2023-02-04T01:42:35;19.00;60.90
76878;DHT22;65843;50.692;12.844;2023-02-04T01:43:45;19.00;60.60
76878;DHT22;65843;50.692;12.844;2023-02-04T01:44:49;19.00;60.50
76878;DHT22;65843;50.692;12.844;2023-02-04T01:45:53;19.00;61.00
76878;DHT22;65843;50.692;12.844;2023-02-04T01:46:54;19.00;60.90
76878;DHT22;65843;50.692;12.844;2023-02-04T01:47:55;19.00;61.00
76878;DHT22;65843;50.692;12.844;2023-02-04T01:49:04;19.00;60.90
76878;DHT22;65843;50.692;12.844;2023-02-04T01:50:08;19.00;60.90
76878;DHT22;65843;50.692;12.844;2023-02-04T01:51:13;19.00;60.80
76878;DHT22;65843;50.692;12.844;2023-02-04T01:52:21;19.00;60.90
76878;DHT22;65843;50.692;12.844;2023-02-04T01:53:23;19.00;61.10
76878;DHT22;65843;50.692;12.844;2023-02-04T01:54:25;19.00;61.00
76878;DHT22;65843;50.692;12.844;2023-02-04T01:55:30;19.00;61.00
76878;DHT22;65843;50.692;12.844;2023-02-04T01:56:37;19.00;61.00
76878;DHT22;65843;50.692;12.844;2023-02-04T01:57:45;19.00;60.90
76878;DHT22;65843;50.692;12.844;2023-02-04T01:58:47;19.00;60.60
76878;DHT22;65843;50.692;12.844;2023-02-04T01:59:48;19.00;61.00
76878;DHT22;65843;50.692;12.844;2023-02-04T02:00:52;19.00;61.00
76878;DHT22;65843;50.692;12.844;2023-02-04T02:01:54;19.00;60.50
76878;DHT22;65843;50.692;12.844;2023-02-04T02:02:55;19.00;60.50
76878;DHT22;65843;50.692;12.844;2023-02-04T02:03:56;19.00;60.50
76878;DHT22;65843;50.692;12.844;2023-02-04T02:04:59;19.00;60.90
76878;DHT22;65843;50.692;12.844;2023-02-04T02:06:00;19.00;60.90
76878;DHT22;65843;50.692;12.844;2023-02-04T02:07:03;19.00;60.80
76878;DHT22;65843;50.692;12.844;2023-02-04T02:08:05;19.00;60.70
76878;DHT22;65843;50.692;12.844;2023-02-04T02:09:09;19.00;60.70
76878;DHT22;65843;50.692;12.844;2023-02-04T02:10:13;19.00;60.80
76878;DHT22;65843;50.692;12.844;2023-02-04T02:11:17;19.00;60.60
76878;DHT22;65843;50.692;12.844;2023-02-04T02:12:21;19.00;60.70
76878;DHT22;65843;50.692;12.844;2023-02-04T02:13:25;19.00;61.00
76878;DHT22;65843;50.692;12.844;2023-02-04T02:14:33;19.00;61.10
76878;DHT22;65843;50.692;12.844;2023-02-04T02:15:43;19.00;61.00
76878;DHT22;65843;50.692;12.844;2023-02-04T02:16:47;19.10;60.70
76878;DHT22;65843;50.692;12.844;2023-02-04T02:17:48;19.10;60.70
76878;DHT22;65843;50.692;12.844;2023-02-04T02:18:49;19.10;61.00
76878;DHT22;65843;50.692;12.844;2023-02-04T02:19:53;19.10;60.90
76878;DHT22;65843;50.692;12.844;2023-02-04T02:21:04;19.10;60.80
76878;DHT22;65843;50.692;12.844;2023-02-04T02:22:10;19.10;60.80
76878;DHT22;65843;50.692;12.844;2023-02-04T02:24:27;19.10;61.00
76878;DHT22;65843;50.692;12.844;2023-02-04T02:25:30;19.10;61.00
76878;DHT22;65843;50.692;12.844;2023-02-04T02:26:40;19.10;60.80
76878;DHT22;65843;50.692;12.844;2023-02-04T02:27:43;19.10;60.90
76878;DHT22;65843;50.692;12.844;2023-02-04T02:28:48;19.10;60.70
76878;DHT22;65843;50.692;12.844;2023-02-04T02:29:51;19.10;61.00
76878;DHT22;65843;50.692;12.844;2023-02-04T02:30:55;19.10;60.90
76878;DHT22;65843;50.692;12.844;2023-02-04T02:31:58;19.10;60.90
76878;DHT22;65843;50.692;12.844;2023-02-04T02:32:59;19.10;60.70
76878;DHT22;65843;50.692;12.844;2023-02-04T02:34:09;19.10;61.10
76878;DHT22;65843;50.692;12.844;2023-02-04T02:35:19;19.10;60.90
76878;DHT22;65843;50.692;12.844;2023-02-04T02:36:23;19.10;60.90
76878;DHT22;65843;50.692;12.844;2023-02-04T02:37:26;19.10;60.90
76878;DHT22;65843;50.692;12.844;2023-02-04T02:38:29;19.10;60.80
76878;DHT22;65843;50.692;12.844;2023-02-04T02:39:30;19.10;60.60
76878;DHT22;65843;50.692;12.844;2023-02-04T02:40:33;19.10;60.90
76878;DHT22;65843;50.692;12.844;2023-02-04T02:41:36;19.10;61.00
76878;DHT22;65843;50.692;12.844;2023-02-04T02:42:47;19.10;60.90
76878;DHT22;65843;50.692;12.844;2023-02-04T02:43:49;19.10;60.50
76878;DHT22;65843;50.692;12.844;2023-02-04T02:44:52;19.10;60.80
76878;DHT22;65843;50.692;12.844;2023-02-04T02:45:53;19.10;60.80
76878;DHT22;65843;50.692;12.844;2023-02-04T02:46:55;19.10;60.80
76878;DHT22;65843;50.692;12.844;2023-02-04T02:48:00;19.10;61.50
76878;DHT22;65843;50.692;12.844;2023-02-04T02:49:02;19.10;60.90
76878;DHT22;65843;50.692;12.844;2023-02-04T02:50:06;19.10;60.80
76878;DHT22;65843;50.692;12.844;2023-02-04T02:51:07;19.10;61.30
76878;DHT22;65843;50.692;12.844;2023-02-04T02:52:11;19.10;61.10
76878;DHT22;65843;50.692;12.844;2023-02-04T02:53:13;19.10;61.00
76878;DHT22;65843;50.692;12.844;2023-02-04T02:54:21;19.10;61.30
76878;DHT22;65843;50.692;12.844;2023-02-04T02:55:25;19.10;61.40
76878;DHT22;65843;50.692;12.844;2023-02-04T02:56:30;19.10;61.50
76878;DHT22;65843;50.692;12.844;2023-02-04T02:57:34;19.00;61.30
76878;DHT22;65843;50.692;12.844;2023-02-04T02:58:37;19.00;61.10
76878;DHT22;65843;50.692;12.844;2023-02-04T02:59:44;19.00;61.60
76878;DHT22;65843;50.692;12.844;2023-02-04T03:00:45;19.00;61.20
76878;DHT22;65843;50.692;12.844;2023-02-04T03:01:50;19.00;60.80
76878;DHT22;65843;50.692;12.844;2023-02-04T03:03:15;19.00;61.30
76878;DHT22;65843;50.692;12.844;2023-02-04T03:04:21;19.00;61.50
76878;DHT22;65843;50.692;12.844;2023-02-04T03:06:44;19.00;61.20
76878;DHT22;65843;50.692;12.844;2023-02-04T03:07:48;19.00;61.00
76878;DHT22;65843;50.692;12.844;2023-02-04T03:08:49;19.00;61.50
76878;DHT22;65843;50.692;12.844;2023-02-04T03:09:53;19.00;61.10
76878;DHT22;65843;50.692;12.844;2023-02-04T03:10:54;19.00;61.50
76878;DHT22;65843;50.692;12.844;2023-02-04T03:11:58;19.00;61.50
76878;DHT22;65843;50.692;12.844;2023-02-04T03:13:06;19.00;61.50
76878;DHT22;65843;50.692;12.844;2023-02-04T03:14:13;19.00;61.40
76878;DHT22;65843;50.692;12.844;2023-02-04T03:15:14;19.00;61.30
76878;DHT22;65843;50.692;12.844;2023-02-04T03:16:15;19.00;61.30
76878;DHT22;65843;50.692;12.844;2023-02-04T03:17:19;19.00;61.60
76878;DHT22;65843;50.692;12.844;2023-02-04T03:18:20;19.00;61.40
76878;DHT22;65843;50.692;12.844;2023-02-04T03:19:22;19.00;61.50
76878;DHT22;65843;50.692;12.844;2023-02-04T03:20:24;19.00;61.50
76878;DHT22;65843;50.692;12.844;2023-02-04T03:21:29;19.00;61.40
76878;DHT22;65843;50.692;12.844;2023-02-04T03:22:33;19.00;61.40
76878;DHT22;65843;50.692;12.844;2023-02-04T03:23:37;19.00;61.70
76878;DHT22;65843;50.692;12.844;2023-02-04T03:24:38;18.90;61.40
76878;DHT22;65843;50.692;12.844;2023-02-04T03:25:45;19.00;61.60
76878;DHT22;65843;50.692;12.844;2023-02-04T03:26:48;19.00;61.80
76878;DHT22;65843;50.692;12.844;2023-02-04T03:27:52;19.00;61.80
76878;DHT22;65843;50.692;12.844;2023-02-04T03:28:56;19.00;61.20
76878;DHT22;65843;50.692;12.844;2023-02-04T03:30:01;19.00;61.20
76878;DHT22;65843;50.692;12.844;2023-02-04T03:31:02;19.00;61.10
76878;DHT22;65843;50.692;12.844;2023-02-04T03:32:05;19.00;61.00
76878;DHT22;65843;50.692;12.844;2023-02-04T03:33:09;19.00;61.80
76878;DHT22;65843;50.692;12.844;2023-02-04T03:34:16;19.00;61.70
76878;DHT22;65843;50.692;12.844;2023-02-04T03:36:55;19.00;61.60
76878;DHT22;65843;50.692;12.844;2023-02-04T03:38:16;19.00;61.20
76878;DHT22;65843;50.692;12.844;2023-02-04T03:39:20;19.00;61.30
76878;DHT22;65843;50.692;12.844;2023-02-04T03:40:21;19.00;61.10
76878;DHT22;65843;50.692;12.844;2023-02-04T03:41:22;19.00;61.60
76878;DHT22;65843;50.692;12.844;2023-02-04T03:42:23;19.00;61.50
76878;DHT22;65843;50.692;12.844;2023-02-04T03:43:25;18.90;61.80
76878;DHT22;65843;50.692;12.844;2023-02-04T03:44:26;19.00;61.80
76878;DHT22;65843;50.692;12.844;2023-02-04T03:45:27;19.00;61.60
76878;DHT22;65843;50.692;12.844;2023-02-04T03:46:28;18.90;61.40
76878;DHT22;65843;50.692;12.844;2023-02-04T03:47:29;18.90;61.30
76878;DHT22;65843;50.692;12.844;2023-02-04T03:48:30;18.90;61.30
76878;DHT22;65843;50.692;12.844;2023-02-04T03:49:30;18.90;61.30
76878;DHT22;65843;50.692;12.844;2023-02-04T03:50:40;19.00;61.20
76878;DHT22;65843;50.692;12.844;2023-02-04T03:51:40;18.90;61.90
76878;DHT22;65843;50.692;12.844;2023-02-04T03:52:47;18.90;61.90
76878;DHT22;65843;50.692;12.844;2023-02-04T03:53:49;18.90;62.00
76878;DHT22;65843;50.692;12.844;2023-02-04T03:54:53;19.00;62.00
76878;DHT22;65843;50.692;12.844;2023-02-04T03:55:54;19.00;62.30
76878;DHT22;65843;50.692;12.844;2023-02-04T03:56:55;19.00;61.90
76878;DHT22;65843;50.692;12.844;2023-02-04T03:57:56;19.00;61.90
76878;DHT22;65843;50.692;12.844;2023-02-04T03:58:57;19.00;62.00
76878;DHT22;65843;50.692;12.844;2023-02-04T03:59:58;19.00;61.90
76878;DHT22;65843;50.692;12.844;2023-02-04T04:00:59;19.00;62.00
76878;DHT22;65843;50.692;12.844;2023-02-04T04:01:59;19.00;62.10
76878;DHT22;65843;50.692;12.844;2023-02-04T04:03:00;19.00;62.00
76878;DHT22;65843;50.692;12.844;2023-02-04T04:04:01;19.00;62.20
76878;DHT22;65843;50.692;12.844;2023-02-04T04:05:02;19.00;62.20
76878;DHT22;65843;50.692;12.844;2023-02-04T04:06:23;19.00;62.30
76878;DHT22;65843;50.692;12.844;2023-02-04T04:07:24;19.00;62.20
76878;DHT22;65843;50.692;12.844;2023-02-04T04:08:31;19.00;62.20
76878;DHT22;65843;50.692;12.844;2023-02-04T04:09:39;19.00;62.30
76878;DHT22;65843;50.692;12.844;2023-02-04T04:10:46;18.90;62.10
76878;DHT22;65843;50.692;12.844;2023-02-04T04:11:52;19.00;62.20
76878;DHT22;65843;50.692;12.844;2023-02-04T04:12:53;18.90;62.20
76878;DHT22;65843;50.692;12.844;2023-02-04T04:13:56;18.90;62.30
76878;DHT22;65843;50.692;12.844;2023-02-04T04:15:05;18.90;62.50
76878;DHT22;65843;50.692;12.844;2023-02-04T04:16:13;18.90;62.50
76878;DHT22;65843;50.692;12.844;2023-02-04T04:17:20;18.90;62.30
76878;DHT22;65843;50.692;12.844;2023-02-04T04:18:21;19.00;62.50
76878;DHT22;65843;50.692;12.844;2023-02-04T04:19:30;19.00;62.50
76878;DHT22;65843;50.692;12.844;2023-02-04T04:20:40;19.00;62.50
76878;DHT22;65843;50.692;12.844;2023-02-04T04:21:44;19.00;62.40
76878;DHT22;65843;50.692;12.844;2023-02-04T04:22:51;19.00;62.50
76878;DHT22;65843;50.692;12.844;2023-02-04T04:23:59;19.00;62.70
76878;DHT22;65843;50.692;12.844;2023-02-04T04:25:03;19.00;62.50
76878;DHT22;65843;50.692;12.844;2023-02-04T04:26:04;19.00;62.30
76878;DHT22;65843;50.692;12.844;2023-02-04T04:27:07;19.00;62.30
76878;DHT22;65843;50.692;12.844;2023-02-04T04:28:08;19.00;62.50
76878;DHT22;65843;50.692;12.844;2023-02-04T04:29:09;19.10;62.90
76878;DHT22;65843;50.692;12.844;2023-02-04T04:30:19;19.10;62.20
76878;DHT22;65843;50.692;12.844;2023-02-04T04:31:20;19.10;62.30
76878;DHT22;65843;50.692;12.844;2023-02-04T04:32:23;19.10;62.40
76878;DHT22;65843;50.692;12.844;2023-02-04T04:33:29;19.10;62.20
76878;DHT22;65843;50.692;12.844;2023-02-04T04:34:30;19.10;62.00
76878;DHT22;65843;50.692;12.844;2023-02-04T04:35:31;19.10;61.50
76878;DHT22;65843;50.692;12.844;2023-02-04T04:36:46;19.10;61.60
76878;DHT22;65843;50.692;12.844;2023-02-04T04:37:49;19.00;61.40
76878;DHT22;65843;50.692;12.844;2023-02-04T04:38:50;19.00;61.60
76878;DHT22;65843;50.692;12.844;2023-02-04T04:39:51;19.00;61.50
76878;DHT22;65843;50.692;12.844;2023-02-04T04:40:52;19.00;61.60
76878;DHT22;65843;50.692;12.844;2023-02-04T04:41:53;19.00;61.50
76878;DHT22;65843;50.692;12.844;2023-02-04T04:42:54;19.00;61.50
76878;DHT22;65843;50.692;12.844;2023-02-04T04:43:55;19.00;61.50
76878;DHT22;65843;50.692;12.844;2023-02-04T04:44:56;19.00;61.40
76878;DHT22;65843;50.692;12.844;2023-02-04T04:45:57;18.90;61.50
76878;DHT22;65843;50.692;12.844;2023-02-04T04:46:57;18.90;61.60
76878;DHT22;65843;50.692;12.844;2023-02-04T04:47:58;18.90;62.00
76878;DHT22;65843;50.692;12.844;2023-02-04T04:48:59;18.90;62.00
76878;DHT22;65843;50.692;12.844;2023-02-04T04:50:00;18.90;61.60
76878;DHT22;65843;50.692;12.844;2023-02-04T04:51:01;18.90;61.70
76878;DHT22;65843;50.692;12.844;2023-02-04T04:52:02;18.90;61.50
76878;DHT22;65843;50.692;12.844;2023-02-04T04:53:03;18.90;61.80
76878;DHT22;65843;50.692;12.844;2023-02-04T04:54:04;18.90;61.40
76878;DHT22;65843;50.692;12.844;2023-02-04T04:55:05;18.90;62.00
76878;DHT22;65843;50.692;12.844;2023-02-04T04:56:06;18.90;61.80
76878;DHT22;65843;50.692;12.844;2023-02-04T04:57:07;18.90;62.00
76878;DHT22;65843;50.692;12.844;2023-02-04T04:58:08;18.90;62.10
76878;DHT22;65843;50.692;12.844;2023-02-04T04:59:08;18.80;62.00
76878;DHT22;65843;50.692;12.844;2023-02-04T05:00:10;18.80;62.10
76878;DHT22;65843;50.692;12.844;2023-02-04T05:01:11;18.80;61.90
76878;DHT22;65843;50.692;12.844;2023-02-04T05:02:12;18.80;61.80
76878;DHT22;65843;50.692;12.844;2023-02-04T05:03:13;18.80;62.00
76878;DHT22;65843;50.692;12.844;2023-02-04T05:04:14;18.80;62.10
76878;DHT22;65843;50.692;12.844;2023-02-04T05:05:15;18.80;62.00
76878;DHT22;65843;50.692;12.844;2023-02-04T05:06:16;18.80;62.00
76878;DHT22;65843;50.692;12.844;2023-02-04T05:07:16;18.80;61.90
76878;DHT22;65843;50.692;12.844;2023-02-04T05:08:17;18.80;62.00
76878;DHT22;65843;50.692;12.844;2023-02-04T05:09:20;18.80;61.90
76878;DHT22;65843;50.692;12.844;2023-02-04T05:10:21;18.80;61.80
76878;DHT22;65843;50.692;12.844;2023-02-04T05:11:22;18.80;61.80
76878;DHT22;65843;50.692;12.844;2023-02-04T05:12:23;18.80;61.50
76878;DHT22;65843;50.692;12.844;2023-02-04T05:13:23;18.80;61.90
76878;DHT22;65843;50.692;12.844;2023-02-04T05:14:24;18.80;62.00
76878;DHT22;65843;50.692;12.844;2023-02-04T05:15:25;18.80;61.50
76878;DHT22;65843;50.692;12.844;2023-02-04T05:16:26;18.80;61.70
76878;DHT22;65843;50.692;12.844;2023-02-04T05:17:27;18.80;62.00
76878;DHT22;65843;50.692;12.844;2023-02-04T05:18:28;18.80;61.10
76878;DHT22;65843;50.692;12.844;2023-02-04T05:19:29;18.80;60.70
76878;DHT22;65843;50.692;12.844;2023-02-04T05:20:29;18.80;60.40
76878;DHT22;65843;50.692;12.844;2023-02-04T05:21:30;18.70;59.00
76878;DHT22;65843;50.692;12.844;2023-02-04T05:22:31;18.70;59.10
76878;DHT22;65843;50.692;12.844;2023-02-04T05:23:32;18.70;56.80
76878;DHT22;65843;50.692;12.844;2023-02-04T05:24:33;18.60;56.90
76878;DHT22;65843;50.692;12.844;2023-02-04T05:25:34;18.60;56.00
76878;DHT22;65843;50.692;12.844;2023-02-04T05:26:34;18.60;56.50
76878;DHT22;65843;50.692;12.844;2023-02-04T05:27:35;18.50;55.20
76878;DHT22;65843;50.692;12.844;2023-02-04T05:28:36;18.50;55.40
76878;DHT22;65843;50.692;12.844;2023-02-04T05:29:37;18.40;53.80
76878;DHT22;65843;50.692;12.844;2023-02-04T05:30:38;18.40;53.60
76878;DHT22;65843;50.692;12.844;2023-02-04T05:31:39;18.30;52.90
76878;DHT22;65843;50.692;12.844;2023-02-04T05:32:40;18.30;52.80
76878;DHT22;65843;50.692;12.844;2023-02-04T05:33:41;18.30;52.40
76878;DHT22;65843;50.692;12.844;2023-02-04T05:34:41;18.20;52.00
76878;DHT22;65843;50.692;12.844;2023-02-04T05:35:42;18.20;52.30
76878;DHT22;65843;50.692;12.844;2023-02-04T05:36:43;18.10;51.60
76878;DHT22;65843;50.692;12.844;2023-02-04T05:37:44;18.10;50.80
76878;DHT22;65843;50.692;12.844;2023-02-04T05:38:45;18.10;50.90
76878;DHT22;65843;50.692;12.844;2023-02-04T05:39:46;18.10;50.40
76878;DHT22;65843;50.692;12.844;2023-02-04T05:40:47;18.00;50.50
76878;DHT22;65843;50.692;12.844;2023-02-04T05:41:48;18.00;50.30
76878;DHT22;65843;50.692;12.844;2023-02-04T05:42:49;18.00;50.10
76878;DHT22;65843;50.692;12.844;2023-02-04T05:43:50;18.00;49.60
76878;DHT22;65843;50.692;12.844;2023-02-04T05:44:50;18.00;49.70
76878;DHT22;65843;50.692;12.844;2023-02-04T05:45:51;17.90;49.00
76878;DHT22;65843;50.692;12.844;2023-02-04T05:46:52;17.90;49.50
76878;DHT22;65843;50.692;12.844;2023-02-04T05:47:53;17.80;48.50
76878;DHT22;65843;50.692;12.844;2023-02-04T05:48:54;17.80;48.70
76878;DHT22;65843;50.692;12.844;2023-02-04T05:49:55;17.80;48.40
76878;DHT22;65843;50.692;12.844;2023-02-04T05:50:55;17.80;48.20
76878;DHT22;65843;50.692;12.844;2023-02-04T05:51:56;17.80;48.20
76878;DHT22;65843;50.692;12.844;2023-02-04T05:52:57;17.80;48.60
76878;DHT22;65843;50.692;12.844;2023-02-04T05:53:58;17.80;48.20
76878;DHT22;65843;50.692;12.844;2023-02-04T05:54:59;17.80;48.20
76878;DHT22;65843;50.692;12.844;2023-02-04T05:56:00;17.70;47.60
76878;DHT22;65843;50.692;12.844;2023-02-04T05:57:01;17.70;47.40
76878;DHT22;65843;50.692;12.844;2023-02-04T05:58:02;17.70;47.40
76878;DHT22;65843;50.692;12.844;2023-02-04T05:59:02;17.80;47.20
76878;DHT22;65843;50.692;12.844;2023-02-04T06:00:04;17.80;47.30
76878;DHT22;65843;50.692;12.844;2023-02-04T06:01:05;17.80;47.70
76878;DHT22;65843;50.692;12.844;2023-02-04T06:02:06;17.80;47.20
76878;DHT22;65843;50.692;12.844;2023-02-04T06:03:07;17.80;47.20
76878;DHT22;65843;50.692;12.844;2023-02-04T06:04:08;17.80;46.90
76878;DHT22;65843;50.692;12.844;2023-02-04T06:05:09;17.90;46.80
76878;DHT22;65843;50.692;12.844;2023-02-04T06:06:10;17.90;46.60
76878;DHT22;65843;50.692;12.844;2023-02-04T06:07:10;18.00;46.60
76878;DHT22;65843;50.692;12.844;2023-02-04T06:08:11;18.00;46.40
76878;DHT22;65843;50.692;12.844;2023-02-04T06:09:15;18.00;46.50
76878;DHT22;65843;50.692;12.844;2023-02-04T06:10:16;18.00;46.30
76878;DHT22;65843;50.692;12.844;2023-02-04T06:11:17;18.00;46.40
76878;DHT22;65843;50.692;12.844;2023-02-04T06:12:17;18.00;47.10
76878;DHT22;65843;50.692;12.844;2023-02-04T06:13:18;18.00;46.00
76878;DHT22;65843;50.692;12.844;2023-02-04T06:14:19;18.00;45.90
76878;DHT22;65843;50.692;12.844;2023-02-04T06:15:20;18.00;46.00
76878;DHT22;65843;50.692;12.844;2023-02-04T06:16:21;18.00;45.80
76878;DHT22;65843;50.692;12.844;2023-02-04T06:17:22;18.00;46.10
76878;DHT22;65843;50.692;12.844;2023-02-04T06:18:23;18.00;45.70
76878;DHT22;65843;50.692;12.844;2023-02-04T06:19:24;18.00;45.60
76878;DHT22;65843;50.692;12.844;2023-02-04T06:20:25;18.00;45.60
76878;DHT22;65843;50.692;12.844;2023-02-04T06:21:25;17.90;45.70
76878;DHT22;65843;50.692;12.844;2023-02-04T06:22:26;17.90;45.40
76878;DHT22;65843;50.692;12.844;2023-02-04T06:23:27;17.80;45.00
76878;DHT22;65843;50.692;12.844;2023-02-04T06:24:28;17.80;44.40
76878;DHT22;65843;50.692;12.844;2023-02-04T06:25:29;17.80;44.40
76878;DHT22;65843;50.692;12.844;2023-02-04T06:26:30;17.80;44.20
76878;DHT22;65843;50.692;12.844;2023-02-04T06:27:31;17.80;44.30
76878;DHT22;65843;50.692;12.844;2023-02-04T06:28:31;17.80;44.60
76878;DHT22;65843;50.692;12.844;2023-02-04T06:29:32;17.70;44.10
76878;DHT22;65843;50.692;12.844;2023-02-04T06:30:33;17.60;44.00
76878;DHT22;65843;50.692;12.844;2023-02-04T06:31:34;17.60;44.10
76878;DHT22;65843;50.692;12.844;2023-02-04T06:32:37;17.60;44.10
76878;DHT22;65843;50.692;12.844;2023-02-04T06:33:38;17.60;44.10
76878;DHT22;65843;50.692;12.844;2023-02-04T06:34:39;17.50;44.20
76878;DHT22;65843;50.692;12.844;2023-02-04T06:35:40;17.50;44.20